aviador You're here:

LBBG Decoded Metar

BOURGAS in BULGARIA
Report Time2017-09-26 06:30:00
UTC Time2017-09-26 07:05:27
Flight Rules vfr VFR
Wind030° at 10 kt
W.Decomp.*RWY 04: 9.7 kt HW 2.4 kt LCW
W.Rank030° ranks 13
Current wind is above 030° avg. (8.5)
Visibility9999 m
Phenomena:N/A
Clouds:Few CB 035 Hf
Expected CloudBase > 1,200 ft AGL from Temp-Dew spread
CeilingNone
Temp20°C (ISA +5)
Dew Point17°C (83% RH)
AAT18.8°C
QNH1017 hPa
Density Alt820 ft
Elevation92 ft
Report Wrong Elevation
Raw Report
LBBG 260630Z 03010KT 9999 FEW035CB 20/17 Q1017 TEMPO 5000 SHRA=

Extra information for LBBG:More info

Metar Taf Metar & Taf Last 4 Metars F.Rules Stats Wind Profile Meteogram Temp Stats Airport Information Weather charts Add Link Nearby VenuesMetar ALERT Operation Metar Decoded Social comments